• Join FlightAware (Why Join?)
  • Login
  • US Flag 
05:06AM EDT


 

Airport Tracker/Info


-or-


 

Live Flight TrackerFlight Track Log ✈ RAX1073 ✈ 07-May-2013 ✈ KOLS - KAZO

Flight Track Log - Related Links

Times and Time Zones

All times are in EDT time to prevent confusion due to time zone crossing. See the RAX1073 flight status page for this flight to view local times or setup timezone preferences in your user account.

Time Position Orientation Groundspeed Altitude Reporting Facility
EDT Latitude Longitude Course Direction KTS MPH feet Rate Location/Type
10:34PM 31.6383 -110.9208 North 302 348 14,800  Level Albuquerque Center
10:35PM 31.7325 -110.9072 North 332 382 16,700 1,380 Climbing Albuquerque Center
10:36PM 31.8369 -110.8928 North 368 423 17,700 1,860 Climbing Albuquerque Center
10:37PM 31.9189 -110.8056 42° Northeast 409 471 20,500 2,340 Climbing Albuquerque Center
10:38PM 31.9539 -110.6750 72° East 417 480 22,500 1,680 Climbing Albuquerque Center
10:39PM 31.9953 -110.5181 73° East 430 495 24,000 1,320 Climbing Albuquerque Center
10:40PM 32.0361 -110.3769 71° East 450 518 25,300 1,380 Climbing Albuquerque Center
10:41PM 32.0753 -110.2289 73° East 469 540 26,900 1,320 Climbing Albuquerque Center
10:42PM 32.1125 -110.0806 73° East 476 548 28,100 1,260 Climbing Albuquerque Center
10:43PM 32.1514 -109.9311 73° East 479 551 29,500 1,140 Climbing Albuquerque Center
10:44PM 32.2017 -109.7850 68° East 485 558 30,500 1,020 Climbing Albuquerque Center
10:45PM 32.2914 -109.6247 56° Northeast 491 565 31,600 1,080 Climbing Albuquerque Center
10:46PM 32.3703 -109.4956 54° Northeast 489 563 32,700 900 Climbing Albuquerque Center
10:47PM 32.4436 -109.3619 57° Northeast 489 563 33,500 1,080 Climbing Albuquerque Center
10:48PM 32.5228 -109.2325 54° Northeast 490 564 34,900 1,080 Climbing Albuquerque Center
10:49PM 32.5961 -109.1003 57° Northeast 488 562 35,800 780 Climbing Albuquerque Center
10:51PM 32.6717 -108.9717 55° Northeast 485 558 36,600 720 Climbing Albuquerque Center
10:52PM 32.7489 -108.8403 55° Northeast 489 563 37,300 660 Climbing Albuquerque Center
10:53PM 32.8319 -108.6811 58° Northeast 491 565 38,000 660 Climbing Albuquerque Center
10:54PM 32.9100 -108.5525 54° Northeast 490 564 38,700 840 Climbing Albuquerque Center
10:55PM 32.9814 -108.4217 57° Northeast 483 556 39,800 900 Climbing Albuquerque Center
10:56PM 33.0519 -108.2983 56° Northeast 464 534 40,600 480 Climbing Albuquerque Center
10:57PM 33.1214 -108.1711 57° Northeast 461 531 40,800 180 Climbing Albuquerque Center
10:58PM 33.1994 -108.0294 57° Northeast 462 532 41,000 60 Climbing Albuquerque Center
10:59PM 33.2736 -107.9000 56° Northeast 467 537 41,000  Level Albuquerque Center
11:00PM 33.3453 -107.7647 58° Northeast 476 548 41,000  Level Albuquerque Center
11:01PM 33.4219 -107.6319 55° Northeast 481 554 41,000  Level Albuquerque Center
11:02PM 33.4969 -107.4928 57° Northeast 490 564 41,000  Level Albuquerque Center
11:03PM 33.5717 -107.3556 57° Northeast 491 565 41,000  Level Albuquerque Center
11:04PM 33.6472 -107.2208 56° Northeast 488 562 41,000  Level Albuquerque Center
11:05PM 33.7181 -107.0842 58° Northeast 482 555 41,000  Level Albuquerque Center
11:06PM 33.8064 -106.9244 56° Northeast 480 552 41,000  Level Albuquerque Center
11:07PM 33.8800 -106.7897 57° Northeast 480 552 41,000  Level Albuquerque Center
11:08PM 33.9517 -106.6567 57° Northeast 478 550 41,000  Level Albuquerque Center
11:09PM 34.0244 -106.5217 57° Northeast 478 550 41,000  Level Albuquerque Center
11:10PM 34.0950 -106.3872 58° Northeast 477 549 41,000  Level Albuquerque Center
11:11PM 34.1658 -106.2528 57° Northeast 476 548 41,000  Level Albuquerque Center
11:12PM 34.2392 -106.1106 58° Northeast 475 547 41,000  Level Albuquerque Center
11:13PM 34.3094 -105.9758 58° Northeast 472 543 41,000  Level Albuquerque Center
11:14PM 34.3847 -105.8431 55° Northeast 473 544 41,000  Level Albuquerque Center
11:15PM 34.4519 -105.7039 60° Northeast 473 544 41,000  Level Albuquerque Center
11:16PM 34.5239 -105.5694 57° Northeast 473 544 41,000  Level Albuquerque Center
11:17PM 34.6078 -105.4122 57° Northeast 472 543 41,000  Level Albuquerque Center
11:18PM 34.6758 -105.2736 59° Northeast 472 543 41,000  Level Albuquerque Center
11:19PM 34.7464 -105.1386 58° Northeast 470 541 41,000  Level Albuquerque Center
11:20PM 34.8156 -105.0022 58° Northeast 470 541 41,000  Level Albuquerque Center
11:21PM 34.8839 -104.8664 58° Northeast 469 540 41,000  Level Albuquerque Center
11:22PM 34.9544 -104.7325 57° Northeast 467 537 41,000  Level Albuquerque Center
11:23PM 35.0211 -104.5947 59° Northeast 467 537 41,000  Level Albuquerque Center
11:24PM 35.0964 -104.4525 57° Northeast 468 539 41,000  Level Albuquerque Center
11:25PM 35.1644 -104.3147 59° Northeast 471 542 41,000  Level Albuquerque Center
11:26PM 35.2328 -104.1781 58° Northeast 472 543 41,000  Level Albuquerque Center
11:27PM 35.3025 -104.0433 58° Northeast 470 541 41,000  Level Albuquerque Center
11:28PM 35.3692 -103.8975 61° Northeast 461 531 41,000  Level Albuquerque Center
11:29PM 35.4389 -103.7628 58° Northeast 464 534 41,000  Level Albuquerque Center
11:30PM 35.5044 -103.6253 60° Northeast 464 534 41,000  Level Albuquerque Center
11:31PM 35.5708 -103.4875 59° Northeast 465 535 41,000  Level Albuquerque Center
11:32PM 35.6392 -103.3528 58° Northeast 462 532 41,000  Level Albuquerque Center
11:33PM 35.7033 -103.2128 61° Northeast 465 535 41,000  Level Albuquerque Center
11:34PM 35.7722 -103.0761 58° Northeast 465 535 41,000  Level Albuquerque Center
11:35PM 35.8381 -102.9378 60° Northeast 464 534 41,000  Level Albuquerque Center
11:36PM 35.9083 -102.7886 60° Northeast 464 534 41,000  Level Albuquerque Center
11:38PM 35.9764 -102.6528 58° Northeast 465 535 41,000  Level Albuquerque Center
11:39PM 36.0400 -102.5119 61° Northeast 467 537 41,000  Level Albuquerque Center
11:40PM 36.1078 -102.3756 58° Northeast 465 535 41,000  Level Albuquerque Center
11:41PM 36.1722 -102.2353 60° Northeast 468 539 41,000  Level Albuquerque Center
11:42PM 36.2381 -102.0956 60° Northeast 468 539 41,000  Level Albuquerque Center
11:43PM 36.3172 -101.9325 59° Northeast 461 531 41,000  Level Albuquerque Center
11:44PM 36.3783 -101.7944 61° Northeast 457 526 41,000  Level Albuquerque Center
11:45PM 36.4422 -101.6583 60° Northeast 455 524 41,000  Level Albuquerque Center
11:46PM 36.4831 -101.5206 70° East 454 522 41,000  Level Albuquerque Center
11:47PM 36.5436 -101.3625 64° Northeast 455 524 41,000  Level Albuquerque Center
11:48PM 36.5889 -101.2222 68° East 455 524 41,000  Level Albuquerque Center
11:49PM 36.6456 -101.0592 67° East 459 528 41,000  Level Kansas City Center
11:50PM 36.6928 -100.9172 67° East 464 534 41,000  Level Kansas City Center
11:51PM 36.7478 -100.7508 68° East 466 536 41,000  Level Kansas City Center
11:52PM 36.7964 -100.6117 66° East 464 534 41,000  Level Kansas City Center
11:53PM 36.8486 -100.4450 69° East 464 534 41,000 360 Level Kansas City Center
11:54PM 36.8964 -100.3069 67° East 458 527 41,800 660 Climbing Kansas City Center
11:55PM 36.9392 -100.1725 68° East 445 512 42,400 420 Climbing Kansas City Center
11:56PM 36.9914 -100.0139 68° East 444 511 42,700 240 Climbing Kansas City Center
11:57PM 37.0256 -99.8717 73° East 446 513 42,900 120 Climbing Kansas City Center
11:58PM 37.0411 -99.7256 82° East 444 511 43,000  Climbing Kansas City Center
11:59PM 37.0650 -99.5542 80° East 447 514 43,000  Level Kansas City Center
12:00AM 37.0842 -99.4214 80° East 450 518 43,000  Level Kansas City Center
12:01AM 37.1092 -99.2672 78° East 453 521 43,000  Level Kansas City Center
12:02AM 37.1356 -99.1108 78° East 459 528 43,000  Level Kansas City Center
12:03AM 37.1769 -98.9289 74° East 455 524 43,000  Level Kansas City Center
12:04AM 37.2094 -98.7764 75° East 454 522 43,000  Level Kansas City Center
12:05AM 37.2419 -98.6225 75° East 455 524 43,000  Level Kansas City Center
12:06AM 37.2747 -98.4669 75° East 460 529 43,000  Level Kansas City Center
12:07AM 37.3100 -98.3172 73° East 452 520 43,000  Level Kansas City Center
12:08AM 37.3361 -98.1647 78° East 449 517 43,000  Level Kansas City Center
12:09AM 37.3631 -98.0125 77° East 450 518 43,000  Level Kansas City Center
12:10AM 37.3911 -97.8603 77° East 451 519 43,000  Level Kansas City Center
12:11AM 37.4139 -97.7075 79° East 448 516 43,000  Level Kansas City Center
12:12AM 37.4558 -97.5619 70° East 450 518 43,000  Level Kansas City Center
12:13AM 37.5161 -97.4272 61° Northeast 446 513 43,000  Level Kansas City Center
12:14AM 37.5772 -97.2925 60° Northeast 446 513 43,000  Level Kansas City Center
12:15AM 37.6450 -97.1283 62° Northeast 444 511 43,000  Level Kansas City Center
12:16AM 37.7058 -96.9944 60° Northeast 443 510 43,000  Level Kansas City Center
12:17AM 37.7678 -96.8628 59° Northeast 439 505 43,000  Level Kansas City Center
12:18AM 37.8278 -96.7278 61° Northeast 442 509 43,000  Level Kansas City Center
12:19AM 37.8881 -96.5947 60° Northeast 438 504 43,000  Level Kansas City Center
12:20AM 37.9511 -96.4614 59° Northeast 441 507 43,000  Level Kansas City Center
12:21AM 38.0108 -96.3253 61° Northeast 441 507 43,000  Level Kansas City Center
12:22AM 38.0703 -96.1903 61° Northeast 440 506 43,000  Level Kansas City Center
12:23AM 38.1331 -96.0561 59° Northeast 435 501 43,000  Level Kansas City Center
12:24AM 38.2036 -95.9056 59° Northeast 442 509 43,000  Level Kansas City Center
12:25AM 38.2628 -95.7769 60° Northeast 442 509 43,000  Level Kansas City Center
12:26AM 38.3239 -95.6475 59° Northeast 446 513 43,000  Level Kansas City Center
12:27AM 38.3925 -95.4947 60° Northeast 445 512 43,000  Level Kansas City Center
12:28AM 38.4531 -95.3611 60° Northeast 453 521 43,000  Level Kansas City Center
12:29AM 38.5164 -95.2333 58° Northeast 449 517 43,000  Level Kansas City Center
12:30AM 38.5861 -95.0836 59° Northeast 440 506 43,000  Level Kansas City Center
12:31AM 38.6472 -94.9556 59° Northeast 441 507 43,000  Level Kansas City Center
12:32AM 38.7100 -94.8300 57° Northeast 439 505 43,000 -120 Level Kansas City Center
12:33AM 38.7800 -94.6831 59° Northeast 436 502 42,800 -540 Descending Kansas City Center
12:34AM 38.8386 -94.5503 60° Northeast 447 514 42,000 -780 Descending Kansas City Center
12:35AM 38.8958 -94.4117 62° Northeast 458 527 41,300 -540 Descending Kansas City Center
12:36AM 38.9703 -94.2533 59° Northeast 463 533 41,000 -180 Descending Kansas City Center
12:37AM 39.0350 -94.1228 57° Northeast 456 525 41,000  Level Kansas City Center
12:38AM 39.1031 -93.9947 56° Northeast 454 522 41,000  Level Kansas City Center
12:39AM 39.1708 -93.8364 61° Northeast 456 525 41,000  Level Kansas City Center
12:40AM 39.2267 -93.6989 62° Northeast 454 522 41,000  Level Kansas City Center
12:41AM 39.2928 -93.5592 59° Northeast 457 526 41,000  Level Kansas City Center
12:42AM 39.3572 -93.4181 59° Northeast 461 531 41,000  Level Kansas City Center
12:43AM 39.4200 -93.2789 60° Northeast 456 525 41,000  Level Kansas City Center
12:44AM 39.4836 -93.1397 59° Northeast 455 524 41,000  Level Kansas City Center
12:45AM 39.5453 -92.9928 61° Northeast 468 539 41,000  Level Kansas City Center
12:46AM 39.6094 -92.8481 60° Northeast 469 540 41,000  Level Kansas City Center
12:48AM 39.6747 -92.7092 59° Northeast 461 531 41,000  Level Kansas City Center
12:49AM 39.7528 -92.5469 58° Northeast 452 520 41,000  Level Kansas City Center
12:50AM 39.8119 -92.4017 62° Northeast 458 527 41,000  Level Kansas City Center
12:51AM 39.8658 -92.2539 65° Northeast 461 531 41,000  Level Kansas City Center
12:52AM 39.9253 -92.1111 61° Northeast 457 526 41,000  Level Kansas City Center
12:53AM 39.9858 -91.9697 61° Northeast 455 524 41,000  Level Kansas City Center
12:54AM 40.0444 -91.8261 62° Northeast 455 524 41,000  Level Kansas City Center
12:55AM 40.1061 -91.6806 61° Northeast 460 529 41,000  Level Kansas City Center
12:56AM 40.1667 -91.5392 61° Northeast 455 524 41,000  Level Kansas City Center
12:57AM 40.2272 -91.3972 61° Northeast 452 520 41,000  Level Kansas City Center
12:58AM 40.2822 -91.2511 64° Northeast 452 520 41,000  Level Kansas City Center
12:59AM 40.3397 -91.0897 65° Northeast 447 514 41,000  Level Kansas City Center
01:00AM 40.3975 -90.9442 62° Northeast 449 517 41,000  Level Kansas City Center
01:01AM 40.4542 -90.7972 63° Northeast 451 519 41,000  Level Kansas City Center
01:02AM 40.5047 -90.6442 66° East 456 525 41,000  Level Kansas City Center
01:03AM 40.5581 -90.4944 65° Northeast 453 521 41,000  Level Kansas City Center
01:04AM 40.6258 -90.3172 63° Northeast 453 521 41,000  Level Chicago Center
01:05AM 40.6797 -90.1756 63° Northeast 452 520 41,000  Level Chicago Center
01:06AM 40.7339 -90.0272 64° Northeast 453 521 41,000  Level Chicago Center
01:07AM 40.7858 -89.8769 65° Northeast 451 519 41,000  Level Chicago Center
01:08AM 40.8381 -89.7275 65° Northeast 453 521 41,000  Level Chicago Center
01:09AM 40.8942 -89.5806 63° Northeast 451 519 41,000  Level Chicago Center
01:10AM 40.9433 -89.4386 65° Northeast 447 514 41,000  Level Chicago Center
01:11AM 40.9969 -89.2897 64° Northeast 449 517 41,000  Level Chicago Center
01:12AM 41.0533 -89.1375 64° Northeast 446 513 41,000  Level Chicago Center
01:13AM 41.1017 -88.9867 67° East 446 513 41,000  Level Chicago Center
01:14AM 41.1472 -88.8356 68° East 446 513 41,000  Level Chicago Center
01:15AM 41.1953 -88.6869 67° East 443 510 41,000  Level Chicago Center
01:16AM 41.2439 -88.5364 67° East 444 511 41,000  Level Chicago Center
01:17AM 41.2939 -88.3867 66° East 446 513 41,000  Level Chicago Center
01:18AM 41.3453 -88.2378 65° Northeast 446 513 41,000  Level Chicago Center
01:19AM 41.3978 -88.0842 65° Northeast 450 518 41,000  Level Chicago Center
01:20AM 41.4503 -87.9333 65° Northeast 449 517 41,000  Level Chicago Center
01:21AM 41.5078 -87.7725 64° Northeast 447 514 41,000  Level Chicago Center
01:22AM 41.5550 -87.6194 68° East 450 518 41,000  Level Chicago Center
01:23AM 41.6025 -87.4656 68° East 451 519 41,000 -960 Level Chicago Center
01:24AM 41.6547 -87.3122 65° Northeast 454 522 39,100 -2,100 Descending Chicago Center
01:25AM 41.7061 -87.1728 64° Northeast 420 483 36,800 -2,700 Descending Chicago Center
01:26AM 41.7547 -87.0217 67° East 438 504 33,700 -3,120 Descending Chicago Center
01:27AM 41.8069 -86.8744 65° Northeast 439 505 30,600 -3,120 Descending Chicago Center
01:28AM 41.8581 -86.7197 66° East 452 520 27,500 -3,360 Descending Chicago Center
01:29AM 41.9153 -86.5506 66° East 453 521 23,900 -3,600 Descending Chicago Center
01:30AM 41.9658 -86.3969 66° East 448 516 20,400 -3,420 Descending Chicago Center
01:31AM 42.0153 -86.2492 66° East 435 501 17,100 -3,300 Descending Chicago Center
01:32AM 42.0631 -86.1192 64° Northeast 396 456 13,800 -3,000 Descending Chicago Center
01:33AM 42.1083 -86.0117 60° Northeast 346 398 11,200 -2,640 Descending Chicago Center